Terminal Aerodrome Forecast
Issued by NWS Shreveport, LA

Home | Current Version | Previous Version | Text Only | Print | Product List | Glossary On
Versions: 1 2 3 4 5 6 7 8 9 10 11 12 13 14 15 16 17 18 19 20 21
000
FTUS44 KSHV 270554
TAFELD
TAF
KELD 270554Z 2706/2806 05010G17KT P6SM OVC018
     FM270900 04012G18KT P6SM VCSH BKN015 OVC025
     FM271200 05013G19KT 5SM -SHRA VCTS OVC010CB
     FM271500 06014G20KT 2SM TSRA BKN015CB OVC025
     FM271800 06012G18KT P6SM VCSH BKN020 OVC030
     FM280300 05010KT P6SM VCTS BKN015CB OVC025=

USA.gov is the U.S. government's official web portal to all federal, state and local government web resources and services.